KFFT/FFT METAR and TAF weather

Enter ICAO airport designator
Station Type Date Time Source
KFFT METAR 2020/09/25 19:53 UTC NOAA

KFFT 251953Z AUTO 00000KT 10SM FEW035 OVC049 25/16 A2996 RMK AO2 SLP140 T02500161


Station Type Date Time Source
KFFT Decoded METAR 2020/09/25 19:53 UTC NOAA

FRANKFORT CAPITAL CITY AIRPORT , KY, United States (KFFT) 38-11N 84-54W 236M
Sep 25, 2020 - 03:53 PM EDT / 2020.09.25 1953 UTC
Wind: Calm:0
Visibility: 10 mile(s):0
Sky conditions: overcast
Temperature: 77.0 F (25.0 C)
Dew Point: 61.0 F (16.1 C)
Relative Humidity: 57%
Pressure (altimeter): 29.96 in. Hg (1014 hPa)
ob: KFFT 251953Z AUTO 00000KT 10SM FEW035 OVC049 25/16 A2996 RMK AO2 SLP140 T02500161
cycle: 20

Station Type Date Time Source
KFFT TAF UTC NOAA

Error!

Example: see airport list